createdAt,value
2022-09-26T00:01:37.034Z,100.00
2022-09-26T00:04:10.423Z,100.00
2022-09-26T00:06:37.243Z,100.00
2022-09-26T00:09:04.143Z,100.00
2022-09-26T00:11:32.656Z,100.00
2022-09-26T00:14:02.801Z,100.00
2022-09-26T00:16:29.739Z,100.00
2022-09-26T00:18:59.083Z,100.00
2022-09-26T00:21:27.645Z,100.00
2022-09-26T00:23:55.341Z,100.00
2022-09-26T00:26:23.654Z,100.00
2022-09-26T00:28:51.037Z,100.00
2022-09-26T00:31:27.193Z,100.00
2022-09-26T00:33:54.398Z,100.00
2022-09-26T00:36:22.446Z,100.00
2022-09-26T00:38:53.666Z,100.00
2022-09-26T00:41:20.676Z,100.00
2022-09-26T00:43:49.757Z,100.00
2022-09-26T00:46:38.502Z,100.00
2022-09-26T00:49:31.257Z,100.00
2022-09-26T00:52:03.877Z,100.00
2022-09-26T00:54:31.842Z,100.00
2022-09-26T00:57:06.355Z,100.00
2022-09-26T00:59:37.275Z,100.00
2022-09-26T01:02:04.959Z,100.00
2022-09-26T01:04:36.044Z,100.00
2022-09-26T01:07:07.452Z,100.00
2022-09-26T01:09:34.142Z,100.00
2022-09-26T01:12:03.383Z,100.00
2022-09-26T01:14:31.756Z,100.00
2022-09-26T01:16:58.714Z,100.00
2022-09-26T01:19:46.830Z,100.00
2022-09-26T01:22:35.091Z,100.00
2022-09-26T01:25:28.339Z,100.00
2022-09-26T01:27:54.958Z,100.00
2022-09-26T01:30:26.604Z,100.00
2022-09-26T01:33:12.189Z,100.00
2022-09-26T01:36:05.928Z,100.00
2022-09-26T01:38:46.488Z,100.00
2022-09-26T01:41:39.069Z,100.00
2022-09-26T01:44:49.257Z,100.00
2022-09-26T01:47:15.911Z,100.00
2022-09-26T01:49:45.200Z,100.00
2022-09-26T01:52:31.723Z,100.00
2022-09-26T01:55:16.156Z,100.00
2022-09-26T01:57:59.280Z,100.00
2022-09-26T02:00:26.943Z,100.00
2022-09-26T02:02:56.886Z,100.00
2022-09-26T02:05:33.405Z,100.00
2022-09-26T02:08:21.264Z,100.00
2022-09-26T02:10:52.690Z,100.00
2022-09-26T02:13:31.864Z,100.00
2022-09-26T02:16:08.443Z,100.00
2022-09-26T02:18:42.874Z,100.00
2022-09-26T02:21:22.383Z,100.00
2022-09-26T02:23:50.865Z,100.00
2022-09-26T02:26:18.018Z,100.00
2022-09-26T02:28:45.389Z,100.00
2022-09-26T02:31:15.329Z,100.00
2022-09-26T02:33:42.177Z,100.00
2022-09-26T02:36:10.636Z,100.00
2022-09-26T02:38:37.947Z,100.00
2022-09-26T02:41:07.015Z,100.00
2022-09-26T02:43:44.699Z,100.00
2022-09-26T02:46:29.445Z,100.00
2022-09-26T02:49:08.245Z,100.00
2022-09-26T02:51:50.193Z,100.00
2022-09-26T02:54:38.511Z,100.00
2022-09-26T02:57:23.033Z,100.00
2022-09-26T03:00:09.688Z,100.00
2022-09-26T03:02:58.969Z,100.00
2022-09-26T03:05:29.637Z,100.00
2022-09-26T03:08:10.184Z,100.00
2022-09-26T03:10:38.170Z,100.00
2022-09-26T03:13:10.721Z,100.00
2022-09-26T03:15:39.206Z,100.00
2022-09-26T03:18:11.755Z,100.00
2022-09-26T03:20:38.786Z,100.00
2022-09-26T03:23:05.603Z,100.00
2022-09-26T03:25:32.554Z,100.00
2022-09-26T03:28:02.308Z,100.00
2022-09-26T03:30:32.620Z,100.00
2022-09-26T03:32:59.290Z,100.00
2022-09-26T03:35:26.000Z,100.00
2022-09-26T03:37:52.916Z,100.00
2022-09-26T03:40:19.705Z,100.00
2022-09-26T03:42:48.118Z,100.00
2022-09-26T03:45:14.944Z,100.00
2022-09-26T03:47:42.154Z,100.00
2022-09-26T03:50:09.534Z,100.00
2022-09-26T03:52:36.792Z,100.00
2022-09-26T03:55:04.697Z,100.00
2022-09-26T03:57:31.454Z,100.00
2022-09-26T03:59:58.177Z,100.00
2022-09-26T04:02:25.381Z,100.00
2022-09-26T04:04:52.157Z,100.00
2022-09-26T04:07:18.855Z,100.00
2022-09-26T04:09:45.548Z,100.00
2022-09-26T04:12:12.240Z,100.00
2022-09-26T04:14:39.035Z,100.00
2022-09-26T04:17:05.726Z,100.00
2022-09-26T04:19:32.420Z,100.00
2022-09-26T04:21:59.600Z,100.00
2022-09-26T04:24:26.546Z,100.00
2022-09-26T04:26:54.097Z,100.00
2022-09-26T04:29:20.810Z,100.00
2022-09-26T04:31:48.164Z,100.00
2022-09-26T04:34:16.026Z,100.00
2022-09-26T04:36:43.833Z,100.00
2022-09-26T04:39:10.709Z,100.00
2022-09-26T04:41:37.735Z,100.00
2022-09-26T04:44:04.460Z,100.00
2022-09-26T04:46:31.585Z,100.00
2022-09-26T04:49:01.535Z,100.00
2022-09-26T04:51:31.447Z,100.00
2022-09-26T04:53:58.997Z,100.00
2022-09-26T04:56:28.110Z,100.00
2022-09-26T04:58:56.953Z,100.00
2022-09-26T05:01:24.461Z,100.00
2022-09-26T05:03:51.330Z,100.00
2022-09-26T05:06:18.404Z,100.00
2022-09-26T05:08:48.660Z,100.00
2022-09-26T05:11:17.640Z,100.00
2022-09-26T05:13:45.149Z,100.00
2022-09-26T05:16:14.656Z,100.00
2022-09-26T05:18:41.648Z,100.00
2022-09-26T05:21:08.787Z,100.00
2022-09-26T05:23:54.966Z,100.00
2022-09-26T05:26:38.104Z,100.00
2022-09-26T05:29:08.530Z,100.00
2022-09-26T05:31:39.603Z,100.00
2022-09-26T05:34:15.460Z,100.00
2022-09-26T05:36:45.434Z,100.00
2022-09-26T05:39:30.732Z,100.00
2022-09-26T05:41:58.487Z,100.00
2022-09-26T05:44:25.953Z,100.00
2022-09-26T05:46:52.821Z,100.00
2022-09-26T05:49:20.605Z,100.00
2022-09-26T05:51:47.604Z,100.00
2022-09-26T05:54:14.541Z,100.00
2022-09-26T05:56:41.335Z,100.00
2022-09-26T05:59:08.382Z,100.00
2022-09-26T06:01:35.832Z,100.00
2022-09-26T06:04:05.593Z,100.00
2022-09-26T06:06:32.342Z,100.00
2022-09-26T06:08:59.526Z,100.00
2022-09-26T06:11:31.017Z,100.00
2022-09-26T06:14:00.852Z,100.00
2022-09-26T06:16:28.374Z,100.00
2022-09-26T06:18:55.950Z,100.00
2022-09-26T06:21:23.526Z,100.00
2022-09-26T06:23:50.511Z,100.00
2022-09-26T06:26:21.666Z,100.00
2022-09-26T06:28:50.156Z,100.00
2022-09-26T06:31:19.983Z,100.00
2022-09-26T06:33:54.562Z,100.00
2022-09-26T06:36:23.066Z,100.00
2022-09-26T06:38:49.947Z,100.00
2022-09-26T06:41:17.105Z,100.00
2022-09-26T06:43:47.811Z,100.00
2022-09-26T06:46:15.354Z,100.00
2022-09-26T06:48:42.807Z,100.00
2022-09-26T06:51:14.037Z,100.00
2022-09-26T06:53:41.190Z,100.00
2022-09-26T06:56:08.359Z,100.00
2022-09-26T06:58:35.073Z,100.00
2022-09-26T07:01:02.796Z,100.00
2022-09-26T07:03:29.744Z,100.00
2022-09-26T07:05:57.370Z,100.00
2022-09-26T07:08:43.693Z,100.00
2022-09-26T07:11:32.752Z,100.00
2022-09-26T07:14:05.086Z,100.00
2022-09-26T07:16:31.925Z,100.00
2022-09-26T07:18:58.909Z,100.00
2022-09-26T07:21:25.641Z,100.00
2022-09-26T07:23:57.859Z,100.00
2022-09-26T07:26:24.661Z,100.00
2022-09-26T07:28:54.676Z,100.00
2022-09-26T07:31:23.849Z,100.00
2022-09-26T07:33:50.700Z,100.00
2022-09-26T07:36:18.597Z,100.00
2022-09-26T07:38:53.613Z,100.00
2022-09-26T07:41:20.322Z,100.00
2022-09-26T07:44:58.928Z,100.00
2022-09-26T07:46:55.193Z,100.00
2022-09-26T07:49:40.848Z,100.00
2022-09-26T07:52:07.883Z,100.00
2022-09-26T07:54:35.769Z,100.00
2022-09-26T07:57:04.977Z,100.00
2022-09-26T07:59:35.945Z,100.00
2022-09-26T08:02:04.068Z,100.00
2022-09-26T08:04:31.373Z,100.00
2022-09-26T08:06:59.575Z,100.00
2022-09-26T08:09:26.307Z,100.00
2022-09-26T08:11:53.736Z,100.00
2022-09-26T08:14:20.509Z,100.00
2022-09-26T08:16:47.256Z,100.00
2022-09-26T08:19:17.522Z,100.00
2022-09-26T08:21:44.394Z,100.00
2022-09-26T08:24:11.219Z,100.00
2022-09-26T08:26:43.854Z,100.00
2022-09-26T08:29:12.625Z,100.00
2022-09-26T08:31:39.723Z,100.00
2022-09-26T08:34:07.708Z,100.00
2022-09-26T08:36:37.203Z,100.00
2022-09-26T08:39:05.089Z,100.00
2022-09-26T08:42:00.682Z,100.00
2022-09-26T08:44:46.393Z,100.00
2022-09-26T08:47:21.776Z,100.00
2022-09-26T08:50:13.388Z,100.00
2022-09-26T08:53:15.981Z,100.00
2022-09-26T08:55:46.973Z,100.00
2022-09-26T08:58:29.163Z,100.00
2022-09-26T09:01:04.952Z,100.00
2022-09-26T09:04:24.002Z,100.00
2022-09-26T09:07:05.698Z,100.00
2022-09-26T09:09:32.545Z,100.00
2022-09-26T09:12:05.331Z,100.00
2022-09-26T09:14:43.657Z,100.00
2022-09-26T09:17:47.238Z,100.00
2022-09-26T09:20:22.046Z,100.00
2022-09-26T09:23:12.099Z,100.00
2022-09-26T09:29:32.799Z,100.00
2022-09-26T09:32:03.200Z,100.00
2022-09-26T09:34:40.047Z,100.00
2022-09-26T09:37:21.110Z,100.00
2022-09-26T09:39:50.243Z,100.00
2022-09-26T09:42:39.738Z,100.00
2022-09-26T09:45:19.966Z,100.00
2022-09-26T09:47:47.026Z,100.00
2022-09-26T09:50:28.778Z,100.00
2022-09-26T09:53:32.150Z,100.00
2022-09-26T09:56:12.507Z,100.00
2022-09-26T09:59:19.517Z,100.00
2022-09-26T10:01:52.066Z,100.00
2022-09-26T10:04:37.847Z,100.00
2022-09-26T10:07:05.718Z,100.00
2022-09-26T10:09:41.997Z,100.00
2022-09-26T10:12:18.265Z,100.00
2022-09-26T10:14:56.814Z,100.00
2022-09-26T10:17:24.260Z,100.00
2022-09-26T10:19:51.565Z,100.00
2022-09-26T10:22:32.894Z,100.00
2022-09-26T10:25:04.771Z,100.00
2022-09-26T10:27:38.323Z,100.00
2022-09-26T10:30:12.438Z,100.00
2022-09-26T10:32:50.721Z,100.00
2022-09-26T10:35:25.606Z,100.00
2022-09-26T10:38:02.641Z,100.00
2022-09-26T10:40:47.888Z,100.00
2022-09-26T10:43:32.706Z,100.00
2022-09-26T10:46:10.245Z,100.00
2022-09-26T10:48:47.155Z,100.00
2022-09-26T10:51:24.879Z,100.00
2022-09-26T10:53:57.060Z,100.00
2022-09-26T10:56:29.100Z,100.00
2022-09-26T10:59:00.189Z,100.00
2022-09-26T11:01:31.490Z,100.00
2022-09-26T11:04:13.357Z,100.00
2022-09-26T11:06:48.161Z,100.00
2022-09-26T11:09:20.742Z,100.00
2022-09-26T11:11:50.735Z,100.00
2022-09-26T11:14:27.987Z,100.00
2022-09-26T11:16:56.453Z,100.00
2022-09-26T11:19:31.468Z,100.00
2022-09-26T11:22:16.610Z,100.00
2022-09-26T11:25:08.020Z,100.00
2022-09-26T11:27:44.045Z,100.00
2022-09-26T11:30:22.640Z,98.32
2022-09-26T11:32:52.428Z,97.98
2022-09-26T11:35:56.786Z,98.82
2022-09-26T11:38:55.443Z,95.99
2022-09-26T11:41:56.306Z,97.38
2022-09-26T11:44:38.232Z,99.41
2022-09-26T11:47:23.780Z,99.76
2022-09-26T11:50:02.765Z,98.25
2022-09-26T11:52:49.545Z,97.28
2022-09-26T11:55:24.335Z,97.54
2022-09-26T11:58:10.367Z,98.08
2022-09-26T12:00:56.035Z,96.94
2022-09-26T12:03:26.557Z,97.45
2022-09-26T12:06:18.192Z,98.94
2022-09-26T12:09:00.665Z,97.82
2022-09-26T12:11:43.191Z,97.70
2022-09-26T12:14:39.506Z,98.97
2022-09-26T12:17:35.526Z,98.86
2022-09-26T12:20:26.345Z,98.24
2022-09-26T12:23:11.389Z,99.62
2022-09-26T12:26:08.848Z,98.40
2022-09-26T12:28:41.814Z,96.21
2022-09-26T12:31:37.416Z,96.31
2022-09-26T12:34:25.864Z,97.54
2022-09-26T12:37:16.066Z,97.69
2022-09-26T12:39:57.559Z,98.97
2022-09-26T12:42:45.901Z,99.41
2022-09-26T12:45:43.602Z,98.79
2022-09-26T12:48:49.290Z,98.81
2022-09-26T12:51:34.152Z,98.27
2022-09-26T12:54:21.235Z,98.81
2022-09-26T12:56:50.784Z,98.30
2022-09-26T12:59:39.218Z,98.60
2022-09-26T13:02:05.908Z,99.15
2022-09-26T13:04:59.515Z,98.22
2022-09-26T13:07:35.249Z,96.35
2022-09-26T13:10:32.875Z,95.13
2022-09-26T13:13:33.397Z,97.38
2022-09-26T13:16:15.096Z,95.53
2022-09-26T13:18:49.644Z,94.29
2022-09-26T13:21:21.694Z,94.75
2022-09-26T13:23:58.728Z,94.58
2022-09-26T13:26:43.916Z,94.60
2022-09-26T13:29:33.966Z,93.92
2022-09-26T13:32:16.488Z,94.94
2022-09-26T13:35:07.927Z,95.86
2022-09-26T13:37:38.104Z,95.80
2022-09-26T13:40:24.955Z,95.60
2022-09-26T13:43:08.001Z,95.65
2022-09-26T13:46:00.796Z,96.74
2022-09-26T13:48:52.028Z,97.70
2022-09-26T13:51:27.222Z,95.17
2022-09-26T13:54:03.219Z,96.12
2022-09-26T13:56:36.542Z,96.57
2022-09-26T13:59:03.610Z,96.99
2022-09-26T14:01:32.137Z,98.40
2022-09-26T14:04:32.786Z,98.17
2022-09-26T14:07:29.028Z,97.29
2022-09-26T14:10:34.994Z,97.00
2022-09-26T14:13:03.487Z,97.51
2022-09-26T14:15:48.631Z,98.14
2022-09-26T14:18:54.011Z,98.38
2022-09-26T14:21:22.898Z,95.74
2022-09-26T14:23:51.545Z,96.76
2022-09-26T14:26:40.694Z,96.05
2022-09-26T14:29:33.577Z,95.71
2022-09-26T14:32:05.388Z,96.70
2022-09-26T14:34:55.429Z,96.41
2022-09-26T14:37:25.204Z,95.08
2022-09-26T14:40:00.425Z,96.32
2022-09-26T14:42:49.394Z,96.37
2022-09-26T14:45:31.288Z,96.76
2022-09-26T14:48:27.202Z,97.06
2022-09-26T14:51:18.744Z,97.80
2022-09-26T14:53:48.317Z,97.60
2022-09-26T14:56:18.126Z,96.75
2022-09-26T14:58:53.485Z,96.25
2022-09-26T15:01:23.980Z,95.00
2022-09-26T15:03:55.850Z,97.20
2022-09-26T15:06:24.645Z,97.07
2022-09-26T15:08:53.469Z,98.80
2022-09-26T15:11:34.849Z,96.54
2022-09-26T15:14:16.732Z,96.96
2022-09-26T15:16:49.293Z,98.69
2022-09-26T15:19:25.338Z,98.45
2022-09-26T15:22:02.406Z,95.06
2022-09-26T15:24:35.573Z,97.25
2022-09-26T15:27:29.361Z,99.95
2022-09-26T15:30:29.693Z,100.00
2022-09-26T15:32:58.222Z,100.00
2022-09-26T15:35:28.147Z,100.00
2022-09-26T15:38:04.286Z,100.00
2022-09-26T15:40:32.382Z,100.00
2022-09-26T15:43:06.406Z,100.00
2022-09-26T15:45:50.388Z,100.00
2022-09-26T15:48:20.524Z,100.00
2022-09-26T15:50:49.716Z,100.00
2022-09-26T15:53:34.959Z,100.00
2022-09-26T15:56:10.015Z,100.00
2022-09-26T15:58:46.637Z,100.00
2022-09-26T16:01:16.662Z,100.00
2022-09-26T16:04:18.519Z,100.00
2022-09-26T16:07:06.093Z,100.00
2022-09-26T16:09:35.721Z,100.00
2022-09-26T16:12:16.613Z,100.00
2022-09-26T16:14:54.895Z,100.00
2022-09-26T16:17:35.873Z,100.00
2022-09-26T16:20:11.384Z,100.00
2022-09-26T16:22:40.393Z,100.00
2022-09-26T16:25:16.017Z,100.00
2022-09-26T16:27:43.049Z,100.00
2022-09-26T16:30:31.007Z,100.00
2022-09-26T16:33:07.619Z,100.00
2022-09-26T16:35:36.742Z,100.00
2022-09-26T16:38:05.593Z,100.00
2022-09-26T16:40:35.048Z,100.00
2022-09-26T16:43:15.135Z,100.00
2022-09-26T16:46:17.969Z,100.00
2022-09-26T16:48:50.643Z,100.00
2022-09-26T16:51:17.422Z,100.00
2022-09-26T16:53:58.778Z,100.00
2022-09-26T16:56:26.490Z,100.00
2022-09-26T16:59:02.798Z,100.00
2022-09-26T17:01:48.623Z,100.00
2022-09-26T17:04:19.163Z,100.00
2022-09-26T17:06:49.012Z,100.00
2022-09-26T17:09:17.256Z,100.00
2022-09-26T17:11:47.908Z,100.00
2022-09-26T17:14:18.711Z,100.00
2022-09-26T17:16:50.781Z,100.00
2022-09-26T17:19:18.406Z,100.00
2022-09-26T17:21:47.377Z,100.00
2022-09-26T17:24:16.860Z,100.00
2022-09-26T17:26:56.890Z,100.00
2022-09-26T17:29:27.421Z,100.00
2022-09-26T17:31:55.592Z,100.00
2022-09-26T17:34:24.547Z,100.00
2022-09-26T17:36:52.654Z,100.00
2022-09-26T17:39:25.893Z,100.00
2022-09-26T17:41:54.137Z,100.00
2022-09-26T17:44:22.325Z,100.00
2022-09-26T17:46:52.641Z,100.00
2022-09-26T17:49:39.499Z,100.00
2022-09-26T17:52:29.119Z,100.00
2022-09-26T17:54:58.769Z,100.00
2022-09-26T17:57:30.606Z,100.00
2022-09-26T17:59:58.299Z,100.00
2022-09-26T18:02:34.626Z,100.00
2022-09-26T18:05:06.357Z,100.00
2022-09-26T18:07:39.386Z,100.00
2022-09-26T18:10:15.573Z,100.00
2022-09-26T18:12:42.478Z,100.00
2022-09-26T18:15:14.362Z,100.00
2022-09-26T18:17:41.357Z,100.00
2022-09-26T18:20:08.380Z,100.00
2022-09-26T18:22:35.408Z,100.00
2022-09-26T18:25:06.809Z,100.00
2022-09-26T18:27:40.122Z,100.00
2022-09-26T18:30:08.489Z,100.00
2022-09-26T18:32:41.249Z,100.00
2022-09-26T18:35:19.851Z,100.00
2022-09-26T18:37:47.019Z,100.00
2022-09-26T18:40:18.151Z,100.00
2022-09-26T18:42:45.770Z,100.00
2022-09-26T18:45:22.244Z,100.00
2022-09-26T18:47:49.696Z,100.00
2022-09-26T18:50:27.029Z,100.00
2022-09-26T18:52:54.065Z,100.00
2022-09-26T18:55:42.287Z,100.00
2022-09-26T18:58:25.522Z,100.00
2022-09-26T19:00:59.423Z,100.00
2022-09-26T19:03:36.140Z,100.00
2022-09-26T19:06:11.082Z,100.00
2022-09-26T19:08:39.234Z,100.00
2022-09-26T19:11:13.549Z,100.00
2022-09-26T19:13:46.241Z,100.00
2022-09-26T19:16:13.331Z,100.00
2022-09-26T19:18:41.470Z,100.00
2022-09-26T19:21:25.596Z,100.00
2022-09-26T19:23:53.095Z,100.00
2022-09-26T19:26:35.249Z,100.00
2022-09-26T19:29:11.234Z,100.00
2022-09-26T19:31:39.213Z,100.00
2022-09-26T19:34:06.321Z,100.00
2022-09-26T19:36:33.059Z,100.00
2022-09-26T19:39:00.097Z,100.00
2022-09-26T19:41:26.896Z,100.00
2022-09-26T19:43:53.628Z,100.00
2022-09-26T19:46:27.418Z,100.00
2022-09-26T19:48:54.370Z,100.00
2022-09-26T19:51:21.351Z,100.00
2022-09-26T19:53:48.353Z,100.00
2022-09-26T19:56:15.088Z,100.00
2022-09-26T19:58:42.911Z,100.00
2022-09-26T20:01:18.549Z,100.00
2022-09-26T20:03:45.531Z,100.00
2022-09-26T20:06:19.841Z,100.00
2022-09-26T20:08:46.824Z,100.00
2022-09-26T20:11:13.872Z,100.00
2022-09-26T20:13:59.200Z,100.00
2022-09-26T20:16:26.654Z,100.00
2022-09-26T20:18:55.790Z,100.00
2022-09-26T20:21:27.301Z,100.00
2022-09-26T20:23:54.445Z,100.00
2022-09-26T20:26:21.527Z,100.00
2022-09-26T20:28:48.530Z,100.00
2022-09-26T20:31:24.500Z,100.00
2022-09-26T20:33:52.424Z,100.00
2022-09-26T20:36:27.236Z,100.00
2022-09-26T20:38:57.630Z,100.00
2022-09-26T20:41:34.192Z,100.00
2022-09-26T20:44:05.385Z,100.00
2022-09-26T20:46:35.532Z,100.00
2022-09-26T20:49:12.932Z,100.00
2022-09-26T20:51:40.015Z,100.00
2022-09-26T20:54:24.730Z,100.00
2022-09-26T20:56:52.840Z,100.00
2022-09-26T20:59:19.558Z,100.00
2022-09-26T21:01:46.404Z,100.00
2022-09-26T21:04:15.616Z,100.00
2022-09-26T21:06:44.012Z,100.00
2022-09-26T21:09:18.922Z,100.00
2022-09-26T21:11:51.661Z,100.00
2022-09-26T21:14:19.089Z,100.00
2022-09-26T21:16:50.477Z,100.00
2022-09-26T21:19:23.264Z,100.00
2022-09-26T21:21:51.724Z,100.00
2022-09-26T21:24:25.352Z,100.00
2022-09-26T21:26:52.333Z,100.00
2022-09-26T21:29:19.297Z,100.00
2022-09-26T21:31:49.778Z,100.00
2022-09-26T21:34:23.049Z,100.00
2022-09-26T21:36:51.895Z,100.00
2022-09-26T21:39:19.537Z,100.00
2022-09-26T21:41:52.600Z,100.00
2022-09-26T21:44:34.307Z,100.00
2022-09-26T21:47:01.126Z,100.00
2022-09-26T21:49:28.228Z,100.00
2022-09-26T21:52:03.183Z,100.00
2022-09-26T21:54:35.069Z,100.00
2022-09-26T21:57:09.378Z,100.00
2022-09-26T21:59:38.934Z,100.00
2022-09-26T22:02:05.809Z,100.00
2022-09-26T22:04:32.609Z,100.00
2022-09-26T22:06:59.285Z,100.00
2022-09-26T22:09:26.112Z,100.00
2022-09-26T22:11:53.229Z,100.00
2022-09-26T22:14:19.887Z,100.00
2022-09-26T22:16:46.690Z,100.00
2022-09-26T22:19:13.687Z,100.00
2022-09-26T22:21:40.485Z,100.00
2022-09-26T22:24:07.323Z,100.00
2022-09-26T22:26:34.029Z,100.00
2022-09-26T22:29:00.848Z,100.00
2022-09-26T22:31:27.602Z,100.00
2022-09-26T22:33:58.206Z,100.00
2022-09-26T22:36:25.565Z,100.00
2022-09-26T22:38:52.942Z,100.00
2022-09-26T22:41:19.657Z,100.00
2022-09-26T22:43:46.822Z,100.00
2022-09-26T22:46:13.717Z,100.00
2022-09-26T22:48:43.606Z,100.00
2022-09-26T22:51:10.398Z,100.00
2022-09-26T22:53:38.877Z,100.00
2022-09-26T22:56:06.733Z,100.00
2022-09-26T22:58:39.669Z,100.00
2022-09-26T23:01:09.644Z,100.00
2022-09-26T23:03:37.080Z,100.00
2022-09-26T23:06:05.632Z,100.00
2022-09-26T23:08:33.619Z,100.00
2022-09-26T23:11:01.340Z,100.00
2022-09-26T23:13:30.016Z,100.00
2022-09-26T23:15:56.755Z,100.00
2022-09-26T23:18:23.445Z,100.00
2022-09-26T23:20:50.205Z,100.00
2022-09-26T23:23:16.928Z,100.00
2022-09-26T23:25:48.736Z,100.00
2022-09-26T23:28:16.881Z,100.00
2022-09-26T23:30:44.367Z,100.00
2022-09-26T23:33:11.247Z,100.00
2022-09-26T23:35:38.402Z,100.00
2022-09-26T23:38:05.530Z,100.00
2022-09-26T23:40:32.647Z,100.00
2022-09-26T23:42:59.401Z,100.00
2022-09-26T23:45:27.059Z,100.00
2022-09-26T23:47:53.943Z,100.00
2022-09-26T23:50:21.434Z,100.00
2022-09-26T23:52:48.134Z,100.00
2022-09-26T23:55:15.151Z,100.00
2022-09-26T23:57:41.905Z,100.00
